createdAt,value
2018-06-17T00:00:49.411Z,20.12
2018-06-17T00:03:20.272Z,20.09
2018-06-17T00:05:52.439Z,20.08
2018-06-17T00:08:22.949Z,20.05
2018-06-17T00:10:53.192Z,20.02
2018-06-17T00:13:24.031Z,20.05
2018-06-17T00:15:54.300Z,20.01
2018-06-17T00:18:24.748Z,20.01
2018-06-17T00:20:55.035Z,20.04
2018-06-17T00:23:26.608Z,20.00
2018-06-17T00:25:57.828Z,19.97
2018-06-17T00:28:28.192Z,19.97
2018-06-17T00:31:01.911Z,19.95
2018-06-17T00:33:33.092Z,19.96
2018-06-17T00:36:03.928Z,19.98
2018-06-17T00:38:34.378Z,19.99
2018-06-17T00:41:05.510Z,19.99
2018-06-17T00:43:35.940Z,19.97
2018-06-17T00:46:06.539Z,19.99
2018-06-17T00:48:36.986Z,19.92
2018-06-17T00:51:07.853Z,19.91
2018-06-17T00:53:39.611Z,19.87
2018-06-17T00:56:09.875Z,19.85
2018-06-17T00:58:40.363Z,19.85
2018-06-17T01:01:10.908Z,19.86
2018-06-17T01:03:41.302Z,19.88
2018-06-17T01:07:42.250Z,19.89
2018-06-17T01:10:13.210Z,19.87
2018-06-17T01:12:44.792Z,19.89
2018-06-17T01:15:15.018Z,19.87
2018-06-17T01:17:45.872Z,19.87
2018-06-17T01:20:16.077Z,19.85
2018-06-17T01:22:46.683Z,19.86
2018-06-17T01:25:17.696Z,19.86
2018-06-17T01:27:48.048Z,19.84
2018-06-17T01:30:18.411Z,19.84
2018-06-17T01:32:48.521Z,19.84
2018-06-17T01:35:19.067Z,19.85
2018-06-17T01:37:49.429Z,19.88
2018-06-17T01:40:19.700Z,19.85
2018-06-17T01:42:50.181Z,19.79
2018-06-17T01:45:20.486Z,19.74
2018-06-17T01:47:50.947Z,19.70
2018-06-17T01:50:21.214Z,19.67
2018-06-17T01:52:52.012Z,19.66
2018-06-17T01:55:22.764Z,19.61
2018-06-17T01:57:53.139Z,19.60
2018-06-17T02:00:23.539Z,19.55
2018-06-17T02:02:54.023Z,19.54
2018-06-17T02:05:29.549Z,19.51
2018-06-17T02:08:04.970Z,19.49
2018-06-17T02:10:40.214Z,19.48
2018-06-17T02:13:10.117Z,19.46
2018-06-17T02:15:40.392Z,19.44
2018-06-17T02:18:10.752Z,19.42
2018-06-17T02:20:41.055Z,19.42
2018-06-17T02:23:11.497Z,19.39
2018-06-17T02:25:42.040Z,19.40
2018-06-17T02:28:12.386Z,19.40
2018-06-17T02:30:43.096Z,19.40
2018-06-17T02:33:13.432Z,19.43
2018-06-17T02:35:44.011Z,19.41
2018-06-17T02:38:14.392Z,19.41
2018-06-17T02:40:44.581Z,19.42
2018-06-17T02:43:14.768Z,19.43
2018-06-17T02:45:50.352Z,19.43
2018-06-17T02:48:25.925Z,19.42
2018-06-17T02:51:02.019Z,19.42
2018-06-17T02:53:37.420Z,19.43
2018-06-17T02:56:07.849Z,19.41
2018-06-17T02:58:38.205Z,19.42
2018-06-17T03:01:08.503Z,19.47
2018-06-17T03:03:39.066Z,19.51
2018-06-17T03:06:09.280Z,19.57
2018-06-17T03:08:39.704Z,19.56
2018-06-17T03:11:10.056Z,19.60
2018-06-17T03:13:43.349Z,19.63
2018-06-17T03:16:13.293Z,19.66
2018-06-17T03:18:43.779Z,19.66
2018-06-17T03:21:14.113Z,19.69
2018-06-17T03:23:44.063Z,19.71
2018-06-17T03:26:19.441Z,19.76
2018-06-17T03:28:54.888Z,19.80
2018-06-17T03:31:25.316Z,19.79
2018-06-17T03:33:56.819Z,19.81
2018-06-17T03:36:27.186Z,19.79
2018-06-17T03:38:57.548Z,19.84
2018-06-17T03:41:27.935Z,19.85
2018-06-17T03:43:58.592Z,19.88
2018-06-17T03:46:29.157Z,19.88
2018-06-17T03:48:59.572Z,19.91
2018-06-17T03:51:30.258Z,19.92
2018-06-17T03:54:00.562Z,19.93
2018-06-17T03:56:30.628Z,19.95
2018-06-17T03:59:00.921Z,20.01
2018-06-17T04:01:31.512Z,20.05
2018-06-17T04:04:01.863Z,20.06
2018-06-17T04:06:32.414Z,20.09
2018-06-17T04:09:02.604Z,20.13
2018-06-17T04:11:33.160Z,20.14
2018-06-17T04:14:03.668Z,20.12
2018-06-17T04:16:33.955Z,20.13
2018-06-17T04:19:04.395Z,20.09
2018-06-17T04:21:34.607Z,20.12
2018-06-17T04:24:04.951Z,20.10
2018-06-17T04:26:35.509Z,20.06
2018-06-17T04:29:05.964Z,20.08
2018-06-17T04:31:36.556Z,20.11
2018-06-17T04:34:06.817Z,20.19
2018-06-17T04:36:37.073Z,20.25
2018-06-17T04:39:08.719Z,20.29
2018-06-17T04:41:39.072Z,20.36
2018-06-17T04:44:09.374Z,20.42
2018-06-17T04:46:39.670Z,20.52
2018-06-17T04:49:10.325Z,20.54
2018-06-17T04:51:40.697Z,20.56
2018-06-17T04:54:11.249Z,20.56
2018-06-17T04:56:41.713Z,20.56
2018-06-17T04:59:12.376Z,20.57
2018-06-17T05:01:42.586Z,20.64
2018-06-17T05:04:13.099Z,20.81
2018-06-17T05:06:43.611Z,20.86
2018-06-17T05:09:13.691Z,20.91
2018-06-17T05:11:44.492Z,20.96
2018-06-17T05:14:15.579Z,21.04
2018-06-17T05:16:46.317Z,21.13
2018-06-17T05:19:17.568Z,21.17
2018-06-17T05:21:47.954Z,21.20
2018-06-17T05:24:18.368Z,21.25
2018-06-17T05:26:49.035Z,21.32
2018-06-17T05:29:19.316Z,21.37
2018-06-17T05:31:49.676Z,21.41
2018-06-17T05:34:19.882Z,21.47
2018-06-17T05:36:50.415Z,21.51
2018-06-17T05:39:20.790Z,21.57
2018-06-17T05:41:51.198Z,21.61
2018-06-17T05:44:21.415Z,21.69
2018-06-17T05:46:51.841Z,21.73
2018-06-17T05:49:22.186Z,21.75
2018-06-17T05:51:52.621Z,21.83
2018-06-17T05:54:23.110Z,21.86
2018-06-17T05:56:53.501Z,21.91
2018-06-17T05:59:23.721Z,21.95
2018-06-17T06:01:54.258Z,22.00
2018-06-17T06:04:24.721Z,22.07
2018-06-17T06:06:54.986Z,22.09
2018-06-17T06:09:25.209Z,22.07
2018-06-17T06:11:55.492Z,22.08
2018-06-17T06:14:26.032Z,22.12
2018-06-17T06:16:56.343Z,22.23
2018-06-17T06:19:26.804Z,22.31
2018-06-17T06:22:03.756Z,22.26
2018-06-17T06:24:34.198Z,22.30
2018-06-17T06:27:04.421Z,22.33
2018-06-17T06:29:35.478Z,22.43
2018-06-17T06:32:06.045Z,22.44
2018-06-17T06:34:38.003Z,22.49
2018-06-17T06:37:08.324Z,22.55
2018-06-17T06:39:38.650Z,22.56
2018-06-17T06:42:09.164Z,22.67
2018-06-17T06:44:39.396Z,22.71
2018-06-17T06:47:09.963Z,22.75
2018-06-17T06:49:40.220Z,22.80
2018-06-17T06:52:10.379Z,22.83
2018-06-17T06:54:40.927Z,22.93
2018-06-17T06:57:11.148Z,22.97
2018-06-17T06:59:41.790Z,23.03
2018-06-17T07:02:22.556Z,23.13
2018-06-17T07:05:03.579Z,23.26
2018-06-17T07:07:44.774Z,23.29
2018-06-17T07:10:23.298Z,23.35
2018-06-17T07:12:53.868Z,23.43
2018-06-17T07:15:36.304Z,23.41
2018-06-17T07:18:17.262Z,23.50
2018-06-17T07:20:47.308Z,23.53
2018-06-17T07:23:17.115Z,23.60
2018-06-17T07:26:56.683Z,23.63
2018-06-17T07:29:39.356Z,23.73
2018-06-17T07:32:09.355Z,23.82
2018-06-17T07:34:39.131Z,23.85
2018-06-17T07:37:09.425Z,23.93
2018-06-17T07:40:19.357Z,24.00
2018-06-17T07:42:49.894Z,24.07
2018-06-17T07:45:19.852Z,24.09
2018-06-17T07:47:49.825Z,24.15
2018-06-17T07:50:30.376Z,24.22
2018-06-17T07:53:12.489Z,24.28
2018-06-17T07:55:42.139Z,24.33
2018-06-17T07:58:11.946Z,24.37
2018-06-17T08:00:41.967Z,24.45
2018-06-17T08:03:11.807Z,24.53
2018-06-17T08:05:41.574Z,24.60
2018-06-17T08:08:11.330Z,24.63
2018-06-17T08:10:41.248Z,24.64
2018-06-17T08:13:10.943Z,24.74
2018-06-17T08:15:40.693Z,24.71
2018-06-17T08:18:10.462Z,24.74
2018-06-17T08:20:40.320Z,24.82
2018-06-17T08:23:10.223Z,24.91
2018-06-17T08:25:39.960Z,25.02
2018-06-17T08:28:09.719Z,25.09
2018-06-17T08:30:39.505Z,25.19
2018-06-17T08:33:09.495Z,25.29
2018-06-17T08:35:39.299Z,25.31
2018-06-17T08:38:09.248Z,25.35
2018-06-17T08:40:39.131Z,25.42
2018-06-17T08:43:08.805Z,25.46
2018-06-17T08:45:38.721Z,25.49
2018-06-17T08:48:09.288Z,25.52
2018-06-17T08:50:39.716Z,25.57
2018-06-17T08:53:11.423Z,25.61
2018-06-17T08:55:41.305Z,25.68
2018-06-17T08:58:11.255Z,25.78
2018-06-17T09:00:41.117Z,25.91
2018-06-17T09:03:11.019Z,25.94
2018-06-17T09:05:40.928Z,26.02
2018-06-17T09:08:10.685Z,26.08
2018-06-17T09:10:40.775Z,26.03
2018-06-17T09:13:10.660Z,26.09
2018-06-17T09:15:40.635Z,25.93
2018-06-17T09:18:10.598Z,25.95
2018-06-17T09:20:40.351Z,26.06
2018-06-17T09:23:10.000Z,26.18
2018-06-17T09:25:39.919Z,26.26
2018-06-17T09:28:10.154Z,26.29
2018-06-17T09:30:40.286Z,26.43
2018-06-17T09:33:09.923Z,26.54
2018-06-17T09:35:39.876Z,26.51
2018-06-17T09:38:09.544Z,26.51
2018-06-17T09:40:39.318Z,26.55
2018-06-17T09:43:09.338Z,26.64
2018-06-17T09:45:39.057Z,26.69
2018-06-17T09:48:08.802Z,26.78
2018-06-17T09:50:38.819Z,26.82
2018-06-17T09:53:08.943Z,26.91
2018-06-17T09:55:38.774Z,26.98
2018-06-17T09:58:08.511Z,26.96
2018-06-17T10:00:38.568Z,27.11
2018-06-17T10:03:08.557Z,27.18
2018-06-17T10:05:38.342Z,27.37
2018-06-17T10:08:08.787Z,27.53
2018-06-17T10:10:53.712Z,27.54
2018-06-17T10:13:25.387Z,27.62
2018-06-17T10:15:55.872Z,27.88
2018-06-17T10:18:26.479Z,28.05
2018-06-17T10:20:56.689Z,28.21
2018-06-17T10:23:27.104Z,28.32
2018-06-17T10:25:57.658Z,28.52
2018-06-17T10:28:29.000Z,28.64
2018-06-17T10:31:00.404Z,28.66
2018-06-17T10:33:30.563Z,28.68
2018-06-17T10:36:01.619Z,28.60
2018-06-17T10:38:31.931Z,28.63
2018-06-17T10:41:02.299Z,28.69
2018-06-17T10:43:33.397Z,28.70
2018-06-17T10:46:03.997Z,28.83
2018-06-17T10:48:37.378Z,28.73
2018-06-17T10:51:07.727Z,28.33
2018-06-17T10:53:38.162Z,28.31
2018-06-17T10:56:08.838Z,28.28
2018-06-17T10:58:39.329Z,28.28
2018-06-17T11:01:09.597Z,28.33
2018-06-17T11:03:39.602Z,28.47
2018-06-17T11:06:09.880Z,28.50
2018-06-17T11:08:40.284Z,28.53
2018-06-17T11:11:10.431Z,28.46
2018-06-17T11:13:40.701Z,28.37
2018-06-17T11:16:10.864Z,28.12
2018-06-17T11:18:41.183Z,28.08
2018-06-17T11:21:11.775Z,27.87
2018-06-17T11:23:42.075Z,27.91
2018-06-17T11:26:12.866Z,27.97
2018-06-17T11:28:43.349Z,28.13
2018-06-17T11:31:13.734Z,28.42
2018-06-17T11:33:44.404Z,28.65
2018-06-17T11:36:14.880Z,28.80
2018-06-17T11:38:45.311Z,28.93
2018-06-17T11:41:15.519Z,29.15
2018-06-17T11:43:46.197Z,29.39
2018-06-17T11:46:16.463Z,29.10
2018-06-17T11:48:47.007Z,28.84
2018-06-17T11:51:17.533Z,28.44
2018-06-17T11:53:48.091Z,28.22
2018-06-17T11:56:18.698Z,28.57
2018-06-17T11:58:49.044Z,29.02
2018-06-17T12:01:19.720Z,29.34
2018-06-17T12:03:50.150Z,29.41
2018-06-17T12:06:20.348Z,29.50
2018-06-17T12:08:51.356Z,29.53
2018-06-17T12:11:21.849Z,29.52
2018-06-17T12:13:52.417Z,29.34
2018-06-17T12:16:23.275Z,29.36
2018-06-17T12:18:54.041Z,29.37
2018-06-17T12:21:24.340Z,29.40
2018-06-17T12:23:55.000Z,29.50
2018-06-17T12:26:25.539Z,29.53
2018-06-17T12:28:55.976Z,29.67
2018-06-17T12:31:26.348Z,29.49
2018-06-17T12:33:56.599Z,29.17
2018-06-17T12:36:26.997Z,29.18
2018-06-17T12:38:57.379Z,29.13
2018-06-17T12:41:28.301Z,29.13
2018-06-17T12:43:58.685Z,29.12
2018-06-17T12:46:29.199Z,28.99
2018-06-17T12:48:59.734Z,28.85
2018-06-17T12:51:30.254Z,29.11
2018-06-17T12:54:01.044Z,29.40
2018-06-17T12:56:31.440Z,29.45
2018-06-17T12:59:01.813Z,29.55
2018-06-17T13:01:35.017Z,29.72
2018-06-17T13:04:05.626Z,29.63
2018-06-17T13:06:36.012Z,29.28
2018-06-17T13:09:08.544Z,29.11
2018-06-17T13:11:38.814Z,28.69
2018-06-17T13:14:09.733Z,28.28
2018-06-17T13:16:40.171Z,28.13
2018-06-17T13:19:10.697Z,27.98
2018-06-17T13:21:40.653Z,27.86
2018-06-17T13:24:11.230Z,27.74
2018-06-17T13:26:41.529Z,27.62
2018-06-17T13:29:11.844Z,27.52
2018-06-17T13:31:42.188Z,27.43
2018-06-17T13:34:12.548Z,27.35
2018-06-17T13:36:43.012Z,27.28
2018-06-17T13:39:13.594Z,27.15
2018-06-17T13:41:43.836Z,27.07
2018-06-17T13:44:14.014Z,26.95
2018-06-17T13:46:44.621Z,26.88
2018-06-17T13:49:15.825Z,26.75
2018-06-17T13:51:46.394Z,26.51
2018-06-17T13:54:16.802Z,26.40
2018-06-17T13:56:47.109Z,26.37
2018-06-17T13:59:17.825Z,26.30
2018-06-17T14:01:48.857Z,26.19
2018-06-17T14:04:19.483Z,26.13
2018-06-17T14:06:49.961Z,26.13
2018-06-17T14:09:20.511Z,26.14
2018-06-17T14:11:50.835Z,26.10
2018-06-17T14:14:21.129Z,26.12
2018-06-17T14:16:51.284Z,26.14
2018-06-17T14:19:22.455Z,26.13
2018-06-17T14:21:52.777Z,26.09
2018-06-17T14:24:24.040Z,26.12
2018-06-17T14:26:54.918Z,26.05
2018-06-17T14:29:26.017Z,26.03
2018-06-17T14:31:56.897Z,26.03
2018-06-17T14:34:27.364Z,26.02
2018-06-17T14:36:57.705Z,26.00
2018-06-17T14:39:28.221Z,25.81
2018-06-17T14:42:03.953Z,25.98
2018-06-17T14:44:39.524Z,25.98
2018-06-17T14:47:14.727Z,25.99
2018-06-17T14:49:50.527Z,25.96
2018-06-17T14:52:26.776Z,26.00
2018-06-17T14:54:58.241Z,26.05
2018-06-17T14:57:29.179Z,26.06
2018-06-17T15:00:00.375Z,26.07
2018-06-17T15:02:30.933Z,26.11
2018-06-17T15:05:02.736Z,26.09
2018-06-17T15:07:33.111Z,26.11
2018-06-17T15:10:03.916Z,26.14
2018-06-17T15:12:34.501Z,26.15
2018-06-17T15:15:05.043Z,26.19
2018-06-17T15:17:35.762Z,26.27
2018-06-17T15:20:06.439Z,26.27
2018-06-17T15:22:37.014Z,26.26
2018-06-17T15:25:07.658Z,26.31
2018-06-17T15:27:38.191Z,26.32
2018-06-17T15:30:09.181Z,26.29
2018-06-17T15:32:44.843Z,26.30
2018-06-17T15:35:21.847Z,26.37
2018-06-17T15:37:58.225Z,26.39
2018-06-17T15:40:34.085Z,26.36
2018-06-17T15:43:04.419Z,26.33
2018-06-17T15:45:35.105Z,26.31
2018-06-17T15:48:06.025Z,26.30
2018-06-17T15:50:36.697Z,26.36
2018-06-17T15:53:06.945Z,26.36
2018-06-17T15:55:37.764Z,26.34
2018-06-17T15:58:08.511Z,26.17
2018-06-17T16:00:38.910Z,26.12
2018-06-17T16:03:09.278Z,26.12
2018-06-17T16:05:39.835Z,26.09
2018-06-17T16:08:10.894Z,26.08
2018-06-17T16:10:41.410Z,26.11
2018-06-17T16:13:17.022Z,26.05
2018-06-17T16:15:52.404Z,26.00
2018-06-17T16:18:27.850Z,26.01
2018-06-17T16:20:58.543Z,25.97
2018-06-17T16:23:30.190Z,26.05
2018-06-17T16:26:00.497Z,26.05
2018-06-17T16:28:30.922Z,26.05
2018-06-17T16:31:01.249Z,26.00
2018-06-17T16:33:31.684Z,25.97
2018-06-17T16:36:02.020Z,25.94
2018-06-17T16:38:32.152Z,25.95
2018-06-17T16:41:02.430Z,25.97
2018-06-17T16:43:32.572Z,25.96
2018-06-17T16:46:02.940Z,25.95
2018-06-17T16:48:33.345Z,25.93
2018-06-17T16:51:08.883Z,25.89
2018-06-17T16:53:44.357Z,25.84
2018-06-17T16:56:19.726Z,25.85
2018-06-17T16:58:54.815Z,25.85
2018-06-17T17:01:25.267Z,25.87
2018-06-17T17:03:55.643Z,25.80
2018-06-17T17:06:26.346Z,25.88
2018-06-17T17:08:56.549Z,25.87
2018-06-17T17:11:27.055Z,25.82
2018-06-17T17:13:57.275Z,25.78
2018-06-17T17:16:27.650Z,25.82
2018-06-17T17:18:57.994Z,25.81
2018-06-17T17:21:28.394Z,25.76
2018-06-17T17:23:58.976Z,25.75
2018-06-17T17:26:29.392Z,25.73
2018-06-17T17:28:59.735Z,25.68
2018-06-17T17:31:35.002Z,25.67
2018-06-17T17:34:10.522Z,25.64
2018-06-17T17:36:45.790Z,25.63
2018-06-17T17:39:21.155Z,25.62
2018-06-17T17:41:51.623Z,25.61
2018-06-17T17:44:22.389Z,25.63
2018-06-17T17:46:57.585Z,25.63
2018-06-17T17:49:27.918Z,25.61
2018-06-17T17:51:58.368Z,25.56
2018-06-17T17:54:28.561Z,25.62
2018-06-17T17:56:58.710Z,25.54
2018-06-17T17:59:28.934Z,25.50
2018-06-17T18:01:59.337Z,25.49
2018-06-17T18:04:29.440Z,25.49
2018-06-17T18:06:59.723Z,25.49
2018-06-17T18:09:30.139Z,25.49
2018-06-17T18:12:00.766Z,25.44
2018-06-17T18:14:30.968Z,25.42
2018-06-17T18:17:01.447Z,25.42
2018-06-17T18:19:32.142Z,25.39
2018-06-17T18:22:02.505Z,25.40
2018-06-17T18:24:32.989Z,25.39
2018-06-17T18:27:08.444Z,25.36
2018-06-17T18:29:44.206Z,25.29
2018-06-17T18:32:19.484Z,25.23
2018-06-17T18:34:54.777Z,25.19
2018-06-17T18:37:25.210Z,25.18
2018-06-17T18:39:55.827Z,25.19
2018-06-17T18:42:26.682Z,25.12
2018-06-17T18:44:57.222Z,25.10
2018-06-17T18:47:27.886Z,25.08
2018-06-17T18:49:59.103Z,25.06
2018-06-17T18:52:29.583Z,25.07
2018-06-17T18:55:01.047Z,25.00
2018-06-17T18:57:31.792Z,24.96
2018-06-17T19:00:02.219Z,24.91
2018-06-17T19:02:33.708Z,24.88
2018-06-17T19:05:04.082Z,24.89
2018-06-17T19:07:34.773Z,24.91
2018-06-17T19:11:09.224Z,24.90
2018-06-17T19:13:44.636Z,24.92
2018-06-17T19:16:20.507Z,24.87
2018-06-17T19:18:51.165Z,24.82
2018-06-17T19:21:22.527Z,24.81
2018-06-17T19:23:53.334Z,24.76
2018-06-17T19:26:23.781Z,24.75
2018-06-17T19:28:54.221Z,24.73
2018-06-17T19:37:00.349Z,24.75
2018-06-17T19:39:30.656Z,24.79
2018-06-17T19:47:37.309Z,24.81
2018-06-17T19:50:12.740Z,24.77
2018-06-17T19:52:48.114Z,24.78
2018-06-17T19:55:23.482Z,24.73
2018-06-17T19:57:58.761Z,24.70
2018-06-17T20:00:32.679Z,24.67
2018-06-17T20:03:03.960Z,24.64
2018-06-17T20:05:34.520Z,24.65
2018-06-17T20:08:05.130Z,24.63
2018-06-17T20:10:35.443Z,24.63
2018-06-17T20:13:05.679Z,24.59
2018-06-17T20:15:35.991Z,24.57
2018-06-17T20:18:06.783Z,24.56
2018-06-17T20:20:37.198Z,24.56
2018-06-17T20:23:07.365Z,24.53
2018-06-17T20:25:37.874Z,24.52
2018-06-17T20:28:08.106Z,24.50
2018-06-17T20:30:38.250Z,24.48
2018-06-17T20:33:13.539Z,24.46
2018-06-17T20:35:49.005Z,24.45
2018-06-17T20:38:24.455Z,24.44
2018-06-17T20:40:59.702Z,24.43
2018-06-17T20:43:35.134Z,24.43
2018-06-17T20:46:05.921Z,24.41
2018-06-17T20:48:36.499Z,24.43
2018-06-17T20:51:06.798Z,24.37
2018-06-17T20:53:37.094Z,24.35
2018-06-17T20:56:07.965Z,24.37
2018-06-17T20:58:38.257Z,24.39
2018-06-17T21:01:08.635Z,24.36
2018-06-17T21:03:39.161Z,24.33
2018-06-17T21:06:09.490Z,24.35
2018-06-17T21:08:39.780Z,24.28
2018-06-17T21:11:10.139Z,24.31
2018-06-17T21:13:40.452Z,24.26
2018-06-17T21:16:10.814Z,24.21
2018-06-17T21:18:46.277Z,24.16
2018-06-17T21:21:21.849Z,24.05
2018-06-17T21:23:57.286Z,23.97
2018-06-17T21:26:32.634Z,23.92
2018-06-17T21:29:02.902Z,23.81
2018-06-17T21:31:33.586Z,23.78
2018-06-17T21:34:04.113Z,23.63
2018-06-17T21:36:34.578Z,23.57
2018-06-17T21:39:06.542Z,23.55
2018-06-17T21:41:37.181Z,23.49
2018-06-17T21:44:07.952Z,23.41
2018-06-17T21:46:38.296Z,23.37
2018-06-17T21:49:08.567Z,23.31
2018-06-17T21:51:38.672Z,23.26
2018-06-17T21:54:09.063Z,23.21
2018-06-17T21:56:39.768Z,23.12
2018-06-17T21:59:10.102Z,23.04
2018-06-17T22:01:40.483Z,23.03
2018-06-17T22:04:15.698Z,23.00
2018-06-17T22:06:45.755Z,22.95
2018-06-17T22:09:21.131Z,22.91
2018-06-17T22:11:56.391Z,22.89
2018-06-17T22:14:31.848Z,22.84
2018-06-17T22:17:07.186Z,22.81
2018-06-17T22:19:37.668Z,22.78
2018-06-17T22:22:07.875Z,22.77
2018-06-17T22:24:38.195Z,22.73
2018-06-17T22:27:08.459Z,22.74
2018-06-17T22:29:38.750Z,22.70
2018-06-17T22:32:09.016Z,22.69
2018-06-17T22:34:39.854Z,22.67
2018-06-17T22:37:10.167Z,22.67
2018-06-17T22:39:40.513Z,22.63
2018-06-17T22:42:10.867Z,22.63
2018-06-17T22:44:40.963Z,22.59
2018-06-17T22:47:11.486Z,22.58
2018-06-17T22:49:41.964Z,22.55
2018-06-17T22:52:12.014Z,22.54
2018-06-17T22:54:51.027Z,22.55
2018-06-17T22:57:26.127Z,22.50
2018-06-17T23:00:01.639Z,22.45
2018-06-17T23:02:36.491Z,22.45
2018-06-17T23:05:11.892Z,22.40
2018-06-17T23:07:47.238Z,22.42
2018-06-17T23:10:17.530Z,22.35
2018-06-17T23:12:48.445Z,22.33
2018-06-17T23:15:19.024Z,22.29
2018-06-17T23:17:49.494Z,22.22
2018-06-17T23:20:19.875Z,22.21
2018-06-17T23:22:50.142Z,22.20
2018-06-17T23:25:20.340Z,22.16
2018-06-17T23:27:50.720Z,22.16
2018-06-17T23:30:21.479Z,22.13
2018-06-17T23:32:51.986Z,22.11
2018-06-17T23:35:22.179Z,22.11
2018-06-17T23:37:52.543Z,22.10
2018-06-17T23:40:22.579Z,22.08
2018-06-17T23:42:52.852Z,22.11
2018-06-17T23:45:22.968Z,22.05
2018-06-17T23:47:58.310Z,22.08
2018-06-17T23:50:34.554Z,22.10
2018-06-17T23:53:09.744Z,22.01
2018-06-17T23:55:45.394Z,21.95
2018-06-17T23:58:16.498Z,21.91
